»·PEaware :: N107MR CYVR-KSEA

N107MR :: CYVR-KSEA

FLIGHT INFORMATION

Flight Status: Arrived
Operator: Privately registered:
United States
More flights under this callsign
Pilot: Michael R. (16974)
Aircraft: ECLIPSE 500
(EA50)
More flights by this aircraft type
Origin: CYVR Vancouver Intl
Canada
Destination: KSEA Seattle-Tacoma Intl
United States
More flights between these airports :: More routes between these airports
Route: +ROESH MARNR7
File this flight plan on PilotEdge
Remarks:
Altitude:
(Current/Filed)
15,000ft
Speed:
(Current/Filed)
320kts
Departed: 18-Feb-18 11:50 AM
Arrived: 18-Feb-18 12:22 PM
Distance/Time
Traveled:
111nm/0:31
Distance/Time
To Go:
Arrived

Flight Plot

Page will automatically refresh every two minutes.

Flight plan parsing failed; only flown route is shown


Map Options




Map Legend


Flown Route
Filed Route
Departure Airport
Arrival Airport
Navaid (VOR, NDB)
Fix

Horizontal Profiles

Position Reports

Time Latitude Longitude Heading Altitude Ground
Speed
18-Feb-18 11:52 49.189939 -123.207041 99 14ft 0kts
18-Feb-18 11:53 49.189939 -123.207041 99 14ft 0kts
18-Feb-18 11:54 49.189939 -123.207041 99 14ft 0kts
18-Feb-18 11:55 49.189939 -123.207041 99 14ft 0kts
18-Feb-18 11:56 49.189939 -123.207041 99 14ft 0kts
18-Feb-18 11:57 49.188793 -123.197304 95 16ft 120kts
18-Feb-18 11:58 49.179397 -123.140103 99 3048ft 150kts
18-Feb-18 11:59 49.168724 -123.077707 99 5778ft 158kts
18-Feb-18 12:00 49.146595 -123.024867 176 8896ft 189kts
18-Feb-18 12:01 49.093098 -123.034069 181 11668ft 201kts
18-Feb-18 12:02 49.037191 -123.034896 175 14276ft 206kts
18-Feb-18 12:03 48.972079 -123.031986 175 15166ft 266kts
18-Feb-18 12:04 48.898092 -123.029045 175 15144ft 274kts
18-Feb-18 12:05 48.822932 -123.026216 175 15142ft 276kts
18-Feb-18 12:06 48.746322 -123.023342 175 15142ft 276kts
18-Feb-18 12:07 48.670660 -123.020514 174 15155ft 273kts
18-Feb-18 12:08 48.596032 -123.008000 165 15128ft 270kts
18-Feb-18 12:09 48.522221 -122.987363 165 15128ft 270kts
18-Feb-18 12:10 48.448878 -122.966499 165 15153ft 270kts
18-Feb-18 12:11 48.375182 -122.945461 165 15155ft 270kts
18-Feb-18 12:12 48.301543 -122.924846 165 15128ft 270kts
18-Feb-18 12:13 48.228074 -122.903883 165 15112ft 270kts
18-Feb-18 12:14 48.154603 -122.882955 165 15109ft 270kts
18-Feb-18 12:15 48.080764 -122.861889 165 15109ft 270kts
18-Feb-18 12:16 48.019872 -122.809678 125 14595ft 261kts
18-Feb-18 12:17 47.972402 -122.730554 129 12916ft 249kts
18-Feb-18 12:18 47.926501 -122.656540 129 11034ft 241kts
18-Feb-18 12:19 47.883167 -122.586545 130 9593ft 238kts
18-Feb-18 12:20 47.838970 -122.515097 130 8090ft 234kts
18-Feb-18 12:21 47.795414 -122.444592 130 6581ft 229kts
18-Feb-18 12:22 47.747244 -122.386008 150 5962ft 236kts
18-Feb-18 12:23 47.691698 -122.343083 151 4798ft 224kts
18-Feb-18 12:24 47.638972 -122.310886 181 4041ft 219kts
18-Feb-18 12:25 47.576646 -122.310309 179 2702ft 204kts
18-Feb-18 12:26 47.528711 -122.310529 179 1723ft 163kts
18-Feb-18 12:27 47.483024 -122.310858 179 826ft 158kts
18-Feb-18 12:28 47.449645 -122.311093 183 398ft 57kts
18-Feb-18 12:29 47.439123 -122.311203 179 356ft 21kts
18-Feb-18 12:30 47.438785 -122.315167 297 346ft 9kts
18-Feb-18 12:31 47.439297 -122.315234 56 348ft 0kts
18-Feb-18 12:32 47.439297 -122.315234 56 348ft 0kts
18-Feb-18 12:33 47.439297 -122.315234 56 348ft 0kts
18-Feb-18 12:34 47.439297 -122.315234 56 348ft 0kts
18-Feb-18 12:35 47.439297 -122.315234 56 348ft 0kts
18-Feb-18 12:36 47.439297 -122.315234 56 348ft 0kts
18-Feb-18 12:37 47.439297 -122.315234 56 348ft 0kts
18-Feb-18 12:38 47.439297 -122.315234 56 348ft 0kts
18-Feb-18 12:39 47.439297 -122.315234 56 348ft 0kts
18-Feb-18 12:40 47.439297 -122.315234 56 348ft 0kts
18-Feb-18 12:41 47.439297 -122.315234 56 348ft 0kts
18-Feb-18 12:42 47.439297 -122.315234 56 348ft 0kts
18-Feb-18 12:43 47.439297 -122.315234 56 348ft 0kts

Navigation Log

Ident Type
Flight plan parsing failed, navigation log unavailable